Flight Track Log - Related Links

Times and Time Zones

All times are in EDT time to prevent confusion due to time zone crossing. See the EJM249 flight status page for this flight to view local times or setup timezone preferences in your user account.

Time Position Orientation Groundspeed Altitude Reporting Facility
EDT Latitude Longitude Course Direction KTS MPH feet Rate Location/Type
Fri 07:04:10 PM 45.5922 -122.6203 296° West 189 217 700  Level Seattle Center
Fri 07:04:34 PM 45.6025 -122.6500 296° West 197 227 2,000 3,917 Climbing Seattle Center
Fri 07:05:22 PM 45.6244 -122.7031 301° West 225 259 5,400 4,691 Climbing Seattle Center
Fri 07:05:29 PM 45.6367 -122.7131 330° Northwest 233 268 6,300 3,246 Climbing Seattle Center
Fri 07:06:23 PM 45.6853 -122.6922 17° North 267 307 8,700 2,922 Climbing Seattle Center
Fri 07:07:24 PM 45.7022 -122.5775 78° East 297 342 11,900 3,295 Climbing Seattle Center
Fri 07:08:25 PM 45.7122 -122.4208 85° East 329 379 15,400 2,852 Climbing Seattle Center
Fri 07:09:26 PM 45.7214 -122.2839 84° East 343 395 17,700 2,361 Climbing Seattle Center
Fri 07:10:27 PM 45.7289 -122.1392 86° East 361 415 20,200 2,488 Climbing Seattle Center
Fri 07:11:29 PM 45.7383 -121.9883 85° East 375 432 22,800 2,439 Climbing Seattle Center
Fri 07:12:30 PM 45.7469 -121.8456 85° East 388 447 25,200 2,410 Climbing Seattle Center
Fri 07:13:31 PM 45.7669 -121.6889 80° East 398 458 27,700 2,311 Climbing Seattle Center
Fri 07:14:32 PM 45.7881 -121.5239 80° East 415 478 29,900 1,967 Climbing Seattle Center
Fri 07:15:33 PM 45.8069 -121.3583 81° East 421 484 31,700 1,525 Climbing Seattle Center
Fri 07:16:34 PM 45.8331 -121.1486 80° East 444 511 33,000 738 Climbing Seattle Center
Fri 07:17:35 PM 45.8558 -120.9597 80° East 472 543 33,200 1,770 Climbing Seattle Center
Fri 07:18:36 PM 45.8783 -120.7717 80° East 476 548 36,600 2,361 Climbing Seattle Center
Fri 07:19:37 PM 45.8983 -120.5972 81° East 452 520 38,000 1,377 Climbing Seattle Center
Fri 07:20:38 PM 45.9189 -120.4194 81° East 450 518 39,400 1,328 Climbing Seattle Center
Fri 07:21:39 PM 45.9389 -120.2369 81° East 457 526 40,700 787 Climbing Seattle Center
Fri 07:22:40 PM 45.9586 -120.0581 81° East 455 524 41,000 146 Climbing Seattle Center
Fri 07:23:42 PM 45.9797 -119.8675 81° East 472 543 41,000  Level Seattle Center
Fri 07:24:43 PM 45.9994 -119.6744 82° East 487 560 41,000  Level Seattle Center
Fri 07:25:44 PM 46.0208 -119.4869 81° East 479 551 41,000  Level Seattle Center
Fri 07:26:45 PM 46.0408 -119.2975 81° East 480 552 41,000  Level Seattle Center
Fri 07:27:46 PM 46.0600 -119.1081 82° East 480 552 41,000  Level Seattle Center
Fri 07:28:47 PM 46.0778 -118.9194 82° East 476 548 41,000  Level Seattle Center
Fri 07:29:48 PM 46.0969 -118.7325 82° East 475 547 41,000  Level Seattle Center
Fri 07:30:49 PM 46.1175 -118.5081 82° East 472 543 41,000  Level Seattle Center
Fri 07:31:50 PM 46.1364 -118.3303 81° East 470 541 41,000  Level Seattle Center
Fri 07:32:51 PM 46.1544 -118.1472 82° East 466 536 41,000  Level Seattle Center
Fri 07:33:52 PM 46.1708 -117.9622 83° East 467 537 41,000  Level Seattle Center
Fri 07:34:53 PM 46.1881 -117.7767 82° East 469 540 41,000  Level Seattle Center
Fri 07:35:54 PM 46.2039 -117.5914 83° East 469 540 41,000  Level Seattle Center
Fri 07:36:55 PM 46.2189 -117.4047 83° East 470 541 41,000  Level Seattle Center
Fri 07:37:56 PM 46.2353 -117.2169 83° East 473 544 41,000  Level Seattle Center
Fri 07:38:57 PM 46.2500 -117.0306 83° East 471 542 41,000  Level Seattle Center
Fri 07:39:58 PM 46.2681 -116.8075 83° East 470 541 41,000  Level Seattle Center
Fri 07:40:59 PM 46.2831 -116.6211 83° East 470 541 41,000  Level Seattle Center
Fri 07:42:00 PM 46.2975 -116.4319 84° East 472 543 41,000 -49 Level Seattle Center
Fri 07:43:01 PM 46.3122 -116.2433 83° East 476 548 40,900  Descending Seattle Center
Fri 07:44:02 PM 46.3261 -116.0564 84° East 472 543 41,000 49 Climbing Seattle Center
Fri 07:45:03 PM 46.3397 -115.8692 84° East 471 542 41,000  Level Seattle Center
Fri 07:46:04 PM 46.3531 -115.6836 84° East 469 540 41,000  Level Seattle Center
Fri 07:47:06 PM 46.3658 -115.4958 84° East 470 541 41,000  Level Seattle Center
Fri 07:48:07 PM 46.3786 -115.3097 84° East 468 539 41,000  Level Seattle Center
Fri 07:49:08 PM 46.3911 -115.1225 84° East 468 539 41,000  Level Seattle Center
Fri 07:50:09 PM 46.4044 -114.9253 84° East 470 541 41,000  Level Seattle Center
Fri 07:51:01 PM 46.4158 -114.7369 85° East 470 541 41,000  Level Salt Lake Center
Fri 07:52:03 PM 46.4283 -114.5536 84° East 462 532 41,000  Level Salt Lake Center
Fri 07:53:05 PM 46.4392 -114.3669 85° East 465 535 41,000  Level Salt Lake Center
Fri 07:54:06 PM 46.4500 -114.1831 85° East 462 532 41,000  Level Salt Lake Center
Fri 07:55:08 PM 46.4600 -113.9983 85° East 462 532 41,000  Level Salt Lake Center
Fri 07:56:10 PM 46.4700 -113.8147 85° East 460 529 41,000  Level Salt Lake Center
Fri 07:57:11 PM 46.4817 -113.5925 86° East 461 531 41,000  Level Salt Lake Center
Fri 07:58:13 PM 46.4906 -113.4067 86° East 464 534 41,000  Level Salt Lake Center
Fri 07:59:15 PM 46.5011 -113.2183 85° East 466 536 41,000 -49 Level Salt Lake Center
Fri 08:00:16 PM 46.5097 -113.0297 86° East 471 542 40,900  Descending Salt Lake Center
Fri 08:01:18 PM 46.5194 -112.8394 86° East 473 544 41,000 48 Climbing Salt Lake Center
Fri 08:02:20 PM 46.5278 -112.6517 86° East 467 537 41,000  Level Salt Lake Center
Fri 08:03:21 PM 46.5339 -112.4692 87° East 457 526 41,000  Level Salt Lake Center
Fri 08:04:23 PM 46.5436 -112.2433 86° East 469 540 41,000  Level Salt Lake Center
Fri 08:05:25 PM 46.5511 -112.0544 87° East 472 543 41,000  Level Salt Lake Center
Fri 08:06:26 PM 46.5586 -111.8722 87° East 459 528 41,000  Level Salt Lake Center
Fri 08:07:28 PM 46.5642 -111.6892 87° East 456 525 41,000  Level Salt Lake Center
Fri 08:08:29 PM 46.5714 -111.5053 87° East 458 527 41,000  Level Salt Lake Center
Fri 08:09:31 PM 46.5769 -111.3219 87° East 457 526 41,000  Level Salt Lake Center
Fri 08:10:33 PM 46.5839 -111.1031 87° East 454 522 41,000  Level Salt Lake Center
Fri 08:11:34 PM 46.5892 -110.9161 88° East 463 533 41,000  Level Salt Lake Center
Fri 08:12:36 PM 46.5939 -110.7336 88° East 459 528 41,000  Level Salt Lake Center
Fri 08:13:37 PM 46.5992 -110.5394 88° East 457 526 41,000  Level Salt Lake Center
Fri 08:14:39 PM 46.6031 -110.3575 88° East 453 521 41,000  Level Salt Lake Center
Fri 08:15:41 PM 46.6075 -110.1844 88° East 458 527 41,000  Level Salt Lake Center
Fri 08:16:42 PM 46.6122 -109.9856 88° East 461 531 41,000  Level Salt Lake Center
Fri 08:17:44 PM 46.6156 -109.7994 88° East 463 533 41,000  Level Salt Lake Center
Fri 08:18:46 PM 46.6189 -109.6119 88° East 464 534 41,000  Level Salt Lake Center
Fri 08:19:47 PM 46.6228 -109.3878 88° East 463 533 41,000  Level Salt Lake Center
Fri 08:20:49 PM 46.6272 -109.1994 88° East 466 536 41,000  Level Salt Lake Center
Fri 08:21:50 PM 46.6281 -109.0114 90° East 466 536 41,000  Level Salt Lake Center
Fri 08:22:52 PM 46.6306 -108.8225 89° East 467 537 41,000  Level Salt Lake Center
Fri 08:23:54 PM 46.6319 -108.6322 89° East 471 542 41,000  Level Salt Lake Center
Fri 08:24:55 PM 46.6333 -108.4425 89° East 469 540 41,000  Level Salt Lake Center
Fri 08:25:57 PM 46.6344 -108.2514 89° East 472 543 41,000  Level Salt Lake Center
Fri 08:26:58 PM 46.6350 -108.0611 90° East 472 543 41,000  Level Salt Lake Center
Fri 08:28:00 PM 46.6356 -107.8342 90° East 468 539 41,000  Level Salt Lake Center
Fri 08:29:02 PM 46.6364 -107.6453 90° East 468 539 41,000  Level Salt Lake Center
Fri 08:30:03 PM 46.6375 -107.4547 89° East 470 541 41,000  Level Salt Lake Center
Fri 08:31:05 PM 46.6356 -107.2633 91° East 472 543 41,000  Level Salt Lake Center
Fri 08:32:06 PM 46.6356 -107.0719 90° East 473 544 41,000  Level Salt Lake Center
Fri 08:33:08 PM 46.6339 -106.8806 91° East 474 545 41,000  Level Salt Lake Center
Fri 08:34:10 PM 46.6311 -106.6875 91° East 476 548 41,000  Level Salt Lake Center
Fri 08:35:11 PM 46.6289 -106.4992 91° East 470 541 41,000  Level Salt Lake Center
Fri 08:36:13 PM 46.6269 -106.2747 91° East 465 535 41,000  Level Salt Lake Center
Fri 08:37:15 PM 46.6239 -106.0864 91° East 465 535 41,000  Level Salt Lake Center
Fri 08:38:16 PM 46.6211 -105.8978 91° East 467 537 41,000  Level Salt Lake Center
Fri 08:39:18 PM 46.6183 -105.7089 91° East 467 537 41,000  Level Salt Lake Center
Fri 08:40:20 PM 46.6147 -105.5406 92° East 465 535 41,000  Level Salt Lake Center
Fri 08:41:21 PM 46.6103 -105.3172 92° East 462 532 41,000  Level Salt Lake Center
Fri 08:42:23 PM 46.6069 -105.1281 91° East 467 537 41,000  Level Salt Lake Center
Fri 08:43:25 PM 46.6017 -104.9378 92° East 470 541 41,000  Level Salt Lake Center
Fri 08:44:26 PM 46.5981 -104.7506 92° East 469 540 41,000  Level Salt Lake Center
Fri 08:45:28 PM 46.5939 -104.5633 92° East 468 539 41,000  Level Salt Lake Center
Fri 08:46:30 PM 46.5889 -104.3728 92° East 471 542 41,000  Level Salt Lake Center
Fri 08:47:31 PM 46.5833 -104.1831 92° East 473 544 41,000  Level Salt Lake Center
Fri 08:48:33 PM 46.5750 -103.9556 93° East 474 545 41,000  Level Salt Lake Center
Fri 08:49:35 PM 46.5692 -103.7653 92° East 473 544 41,000  Level Salt Lake Center
Fri 08:50:36 PM 46.5631 -103.5733 93° East 475 547 41,000  Level Salt Lake Center
Fri 08:51:38 PM 46.5564 -103.3817 93° East 477 549 41,000  Level Salt Lake Center
Fri 08:52:39 PM 46.5503 -103.1908 93° East 477 549 41,000  Level Salt Lake Center
Fri 08:53:41 PM 46.5431 -103.0014 93° East 476 548 41,000  Level Salt Lake Center
Fri 08:54:42 PM 46.5367 -102.8114 93° East 478 550 41,000  Level Minneapolis Center
Fri 08:55:44 PM 46.5275 -102.5850 93° East 476 548 41,000  Level Minneapolis Center
Fri 08:56:46 PM 46.5194 -102.3956 93° East 474 545 41,000  Level Minneapolis Center
Fri 08:57:48 PM 46.5103 -102.2064 94° East 473 544 41,000  Level Minneapolis Center
Fri 08:58:50 PM 46.5008 -102.0192 94° East 472 543 41,000  Level Minneapolis Center
Fri 08:59:57 PM 46.4897 -101.7936 94° East 470 541 41,000  Level Minneapolis Center
Fri 09:00:59 PM 46.4783 -101.6014 95° East 470 541 41,000  Level Minneapolis Center
Fri 09:02:01 PM 46.4661 -101.4150 95° East 468 539 41,000  Level Minneapolis Center
Fri 09:03:03 PM 46.4558 -101.2247 94° East 471 542 41,000  Level Minneapolis Center
Fri 09:04:05 PM 46.4467 -101.0319 94° East 474 545 41,000  Level Minneapolis Center
Fri 09:05:07 PM 46.4331 -100.8042 95° East 473 544 41,000  Level Minneapolis Center
Fri 09:06:09 PM 46.4208 -100.6175 95° East 469 540 41,000  Level Minneapolis Center
Fri 09:07:11 PM 46.4081 -100.4317 96° East 466 536 41,000  Level Minneapolis Center
Fri 09:08:13 PM 46.3964 -100.2425 95° East 467 537 41,000  Level Minneapolis Center
Fri 09:09:15 PM 46.3847 -100.0483 95° East 472 543 41,000  Level Minneapolis Center
Fri 09:10:17 PM 46.3714 -99.8567 96° East 477 549 41,000  Level Minneapolis Center
Fri 09:11:19 PM 46.3581 -99.6661 96° East 477 549 41,000  Level Minneapolis Center
Fri 09:12:21 PM 46.3428 -99.4369 95° East 476 548 41,000  Level Minneapolis Center
Fri 09:13:23 PM 46.3283 -99.2489 96° East 481 554 41,000  Level Minneapolis Center
Fri 09:14:25 PM 46.3147 -99.0592 96° East 479 551 41,000  Level Minneapolis Center
Fri 09:15:27 PM 46.3008 -98.8708 96° East 477 549 41,000  Level Minneapolis Center
Fri 09:16:29 PM 46.2856 -98.6775 96° East 481 554 41,000  Level Minneapolis Center
Fri 09:17:31 PM 46.2703 -98.4844 96° East 485 558 41,000  Level Minneapolis Center
Fri 09:18:33 PM 46.2506 -98.2519 97° East 487 560 41,000  Level Minneapolis Center
Fri 09:19:35 PM 46.2336 -98.0564 97° East 491 565 41,000  Level Minneapolis Center
Fri 09:20:37 PM 46.2169 -97.8606 97° East 494 568 41,000  Level Minneapolis Center
Fri 09:21:38 PM 46.1997 -97.6639 97° East 497 572 41,000  Level Minneapolis Center
Fri 09:22:40 PM 46.1828 -97.4650 97° East 500 575 41,000  Level Minneapolis Center
Fri 09:23:42 PM 46.1606 -97.2256 98° East 505 581 41,000  Level Minneapolis Center
Fri 09:24:44 PM 46.1408 -97.0264 98° East 505 581 41,000  Level Minneapolis Center
Fri 09:25:46 PM 46.1244 -96.8403 97° East 510 587 41,000  Level Minneapolis Center
Fri 09:26:48 PM 46.0961 -96.5964 99° East 514 592 41,000  Level Minneapolis Center
Fri 09:27:50 PM 46.0606 -96.4014 105° East 507 583 41,000 -968 Level Minneapolis Center
Fri 09:28:52 PM 46.0272 -96.2058 104° East 504 580 39,000 -2,081 Descending Minneapolis Center
Fri 09:29:54 PM 45.9931 -96.0136 104° East 497 572 36,700 -2,244 Descending Minneapolis Center
Fri 09:30:55 PM 45.9583 -95.8156 104° East 508 585 34,400 -2,244 Descending Minneapolis Center
Fri 09:31:57 PM 45.9231 -95.6167 104° East 513 590 32,100 -2,274 Descending Minneapolis Center
Fri 09:32:59 PM 45.8875 -95.4211 105° East 509 586 29,700 -2,516 Descending Minneapolis Center
Fri 09:34:01 PM 45.8425 -95.1794 105° East 520 598 26,900 -2,419 Descending Minneapolis Center
Fri 09:35:03 PM 45.8092 -94.9931 104° East 516 594 24,700 -2,226 Descending Minneapolis Center
Fri 09:36:05 PM 45.7719 -94.7969 105° East 510 587 22,300 -2,293 Descending Minneapolis Center
Fri 09:37:06 PM 45.7356 -94.6031 105° East 508 585 20,000 -2,195 Descending Minneapolis Center
Fri 09:38:08 PM 45.7000 -94.4150 105° East 498 573 17,800 -2,304 Descending Minneapolis Center
Fri 09:39:11 PM 45.6583 -94.2006 105° East 476 548 15,200 -2,208 Descending Minneapolis Center
Fri 09:40:13 PM 45.6250 -94.0319 106° East 449 517 13,200 -1,902 Descending Minneapolis Center
Fri 09:41:14 PM 45.5947 -93.8722 105° East 419 482 11,300 -1,512 Descending Minneapolis Center
Fri 09:42:16 PM 45.5694 -93.7492 106° East 331 381 10,100 -1,355 Descending Minneapolis Center
Fri 09:43:18 PM 45.5456 -93.6431 108° East 291 335 8,500 -1,452 Descending Minneapolis Center
Fri 09:44:20 PM 45.4967 -93.5686 133° Southeast 263 303 7,100 -1,415 Descending Minneapolis Center
Fri 09:45:21 PM 45.4369 -93.5164 148° Southeast 252 290 5,600 -1,512 Descending Minneapolis Center
Fri 09:46:23 PM 45.3661 -93.4544 148° Southeast 247 284 4,000 -774 Descending Minneapolis Center
Fri 09:47:25 PM 45.3106 -93.4047 148° Southeast 238 274 4,000  Level Minneapolis Center
Fri 09:48:26 PM 45.2544 -93.3542 148° Southeast 240 276 4,000  Level Minneapolis Center
Fri 09:49:28 PM 45.1983 -93.3047 148° Southeast 238 274 4,000  Level Minneapolis Center
Fri 09:50:29 PM 45.1414 -93.2547 148° Southeast 240 276 4,000  Level Minneapolis Center
Fri 09:51:31 PM 45.0864 -93.2058 148° Southeast 233 268 4,000 -339 Level Minneapolis Center
Fri 09:52:33 PM 45.0469 -93.1681 146° Southeast 174 200 3,300 -780 Descending Minneapolis Center
Fri 09:53:34 PM 45.0092 -93.1314 146° Southeast 165 190 2,400 -829 Descending Minneapolis Center
Fri 09:54:36 PM 44.9756 -93.1003 147° Southeast 136 157 1,600 -683 Descending Minneapolis Center
Fri 09:55:37 PM 44.9472 -93.0728 146° Southeast 127 146 1,000 -590 Descending Minneapolis Center

Login

Don't have an account? Register now (free) for customized features, flight alerts, and more!